Time;durP1;ratioP1;P1;durP2;ratioP2;P2;SDS_P1;SDS_P2;PMS_P1;PMS_P2;Temp;Humidity;BMP_temperature;BMP_pressure;BME280_temperature;BME280_humidity;BME280_pressure;Samples;Min_cycle;Max_cycle;Signal;HPM_P1;HPM_P2
2023/02/15 00:00:10;;;;;;;18.80;8.15;;;1.00;99.90;;;;;;5052966;28;20129;-75
2023/02/15 00:02:36;;;;;;;17.10;7.90;;;1.00;99.90;;;;;;5070758;28;20032;-76
2023/02/15 00:05:02;;;;;;;;;;;1.10;99.90;;;;;;5053543;28;20389;-76
2023/02/15 00:07:27;;;;;;;20.15;8.95;;;1.20;99.90;;;;;;5053186;28;19904;-77
2023/02/15 00:09:53;;;;;;;;;;;1.40;99.90;;;;;;5053475;28;20511;-75
2023/02/15 00:12:18;;;;;;;22.98;11.13;;;1.70;99.90;;;;;;5070372;28;20404;-76
2023/02/15 00:14:44;;;;;;;;;;;1.70;99.90;;;;;;5071340;28;20374;-75
2023/02/15 00:17:10;;;;;;;26.38;12.82;;;1.70;99.90;;;;;;5053065;28;20365;-75
2023/02/15 00:19:36;;;;;;;;;;;1.70;99.90;;;;;;5070959;28;20446;-76
2023/02/15 00:22:01;;;;;;;27.90;12.32;;;1.80;99.90;;;;;;5052733;28;19904;-76
2023/02/15 00:24:27;;;;;;;;;;;1.90;99.90;;;;;;5070836;28;20445;-75
2023/02/15 00:26:52;;;;;;;28.98;14.27;;;2.10;99.90;;;;;;5070470;28;19915;-75
2023/02/15 00:29:19;;;;;;;23.58;12.90;;;2.10;99.90;;;;;;5070652;28;20020;-75
2023/02/15 00:31:45;;;;;;;22.52;11.82;;;2.20;99.90;;;;;;5052309;28;20040;-75
2023/02/15 00:34:10;;;;;;;;;;;2.10;99.90;;;;;;5070508;28;20040;-75
2023/02/15 00:36:36;;;;;;;27.65;14.48;;;2.10;99.90;;;;;;5070430;28;19908;-76
2023/02/15 00:39:02;;;;;;;;;;;2.10;99.90;;;;;;5070933;28;20548;-76
2023/02/15 00:41:28;;;;;;;24.27;14.47;;;2.10;99.90;;;;;;5070476;28;19915;-77
2023/02/15 00:43:54;;;;;;;25.92;14.85;;;2.10;99.90;;;;;;5052389;28;20266;-76
2023/02/15 00:46:19;;;;;;;;;;;2.20;99.90;;;;;;5052374;28;20520;-75
2023/02/15 00:48:45;;;;;;;25.23;12.23;;;2.30;99.90;;;;;;5052081;28;19909;-76
2023/02/15 00:51:10;;;;;;;;;;;2.20;99.90;;;;;;5070338;28;20025;-75
2023/02/15 00:53:36;;;;;;;23.90;12.18;;;2.10;99.90;;;;;;5070245;28;19952;-77
2023/02/15 00:56:01;;;;;;;;;;;2.00;99.90;;;;;;5052442;28;20029;-75
2023/02/15 00:58:27;;;;;;;27.70;13.63;;;2.00;99.90;;;;;;5051769;28;19912;-76
2023/02/15 01:00:53;;;;;;;;;;;1.80;99.90;;;;;;5070233;28;20542;-75
2023/02/15 01:03:20;;;;;;;24.63;12.10;;;1.90;99.90;;;;;;5051814;28;19908;-75
2023/02/15 01:05:47;;;;;;;32.60;13.77;;;1.80;99.90;;;;;;5069754;28;20032;-75
2023/02/15 01:08:13;;;;;;;24.35;12.85;;;1.80;99.90;;;;;;5051592;28;20028;-75
2023/02/15 01:10:39;;;;;;;;;;;1.90;99.90;;;;;;5052479;28;20037;-75
2023/02/15 01:13:06;;;;;;;24.95;12.48;;;1.80;99.90;;;;;;5069543;28;19993;-73
2023/02/15 01:15:35;;;;;;;23.80;12.52;;;1.70;99.90;;;;;;5051171;28;20020;-74
2023/02/15 01:18:01;;;;;;;27.65;12.63;;;1.70;99.90;;;;;;5051788;28;20036;-74
2023/02/15 01:20:27;;;;;;;;;;;1.60;99.90;;;;;;5051682;28;20025;-75
2023/02/15 01:22:54;;;;;;;18.85;10.48;;;1.50;99.90;;;;;;5069327;28;19943;-75
2023/02/15 01:25:22;;;;;;;21.05;10.38;;;1.50;99.90;;;;;;5069390;28;20032;-76
2023/02/15 01:27:48;;;;;;;20.98;11.77;;;1.50;99.90;;;;;;5051293;28;20035;-75
2023/02/15 01:30:14;;;;;;;23.75;12.88;;;1.50;99.90;;;;;;5051051;28;20484;-75
2023/02/15 01:32:41;;;;;;;26.83;13.80;;;1.40;99.90;;;;;;5069269;28;20647;-75
2023/02/15 01:35:08;;;;;;;29.60;14.70;;;1.30;99.90;;;;;;5051111;28;20564;-75
2023/02/15 01:37:34;;;;;;;29.08;13.57;;;1.20;99.90;;;;;;5051174;28;20108;-76
2023/02/15 01:40:00;;;;;;;;;;;1.10;99.90;;;;;;5069625;28;20032;-75
2023/02/15 01:42:27;;;;;;;23.52;11.18;;;1.10;99.90;;;;;;5051000;28;19912;-75
2023/02/15 01:44:58;;;;;;;26.00;12.07;;;1.00;99.90;;;;;;5050788;28;20031;-74
2023/02/15 01:47:47;;;;;;;22.77;11.63;;;1.00;99.90;;;;;;5068991;28;20025;-74
2023/02/15 01:50:16;;;;;;;18.67;9.40;;;0.90;99.90;;;;;;5068913;28;20070;-76
2023/02/15 01:52:53;;;;;;;18.83;8.40;;;1.00;99.90;;;;;;5068715;28;20401;-74
2023/02/15 01:55:19;;;;;;;;;;;1.00;99.90;;;;;;5069011;28;20031;-77
2023/02/15 01:57:46;;;;;;;20.55;10.05;;;1.00;99.90;;;;;;5050688;28;20300;-74
2023/02/15 02:00:13;;;;;;;23.20;11.43;;;0.90;99.90;;;;;;5050373;28;20492;-75
2023/02/15 02:02:42;;;;;;;21.38;9.93;;;0.80;99.90;;;;;;5050371;28;20036;-75
2023/02/15 02:05:08;;;;;;;21.20;10.07;;;0.70;99.90;;;;;;5068537;28;20508;-74
2023/02/15 02:07:38;;;;;;;25.50;11.27;;;0.70;99.90;;;;;;5068463;28;20111;-75
2023/02/15 02:10:06;;;;;;;23.25;11.13;;;0.50;99.90;;;;;;5068601;28;20021;-75
2023/02/15 02:12:32;;;;;;;25.15;11.73;;;0.40;99.90;;;;;;5068241;28;20114;-75
2023/02/15 02:14:58;;;;;;;31.08;11.82;;;0.40;99.90;;;;;;5068405;28;20024;-75
2023/02/15 02:17:42;;;;;;;32.28;16.90;;;0.30;99.90;;;;;;5050496;28;20444;-75
2023/02/15 02:20:26;;;;;;;43.90;19.58;;;0.20;99.90;;;;;;5068579;28;20095;-75
2023/02/15 02:23:16;;;;;;;47.58;22.25;;;0.20;99.90;;;;;;5050314;28;20055;-75
2023/02/15 02:25:51;;;;;;;38.25;17.45;;;0.10;99.90;;;;;;5067488;28;20028;-74
2023/02/15 02:28:46;;;;;;;29.45;14.25;;;0.10;99.90;;;;;;5050121;28;20025;-76
2023/02/15 02:31:33;;;;;;;27.50;12.38;;;0.10;99.90;;;;;;5020691;28;20048;-74
2023/02/15 02:34:17;;;;;;;25.25;9.77;;;0.10;99.90;;;;;;5048761;28;20124;-76
2023/02/15 02:36:57;;;;;;;20.42;9.13;;;0.10;99.90;;;;;;5050202;28;20572;-75
2023/02/15 02:39:54;;;;;;;19.20;10.15;;;0.20;99.90;;;;;;5050380;28;20060;-75
2023/02/15 02:42:31;;;;;;;25.33;11.27;;;0.20;99.90;;;;;;5049128;28;20056;-75
2023/02/15 02:45:12;;;;;;;18.27;9.68;;;0.20;99.90;;;;;;5050184;28;20378;-75
2023/02/15 02:47:41;;;;;;;21.38;11.25;;;0.10;99.90;;;;;;5050158;28;20043;-74
2023/02/15 02:50:12;;;;;;;22.33;11.90;;;0.10;99.90;;;;;;5050158;28;20070;-75
2023/02/15 02:52:50;;;;;;;24.42;12.57;;;0.00;99.90;;;;;;5068172;28;20128;-74
2023/02/15 02:55:32;;;;;;;29.92;14.45;;;0.00;99.90;;;;;;5049954;28;20125;-75
2023/02/15 02:58:00;;;;;;;34.08;14.60;;;-0.10;99.90;;;;;;5049859;28;20028;-76
2023/02/15 03:00:31;;;;;;;24.77;13.63;;;-0.20;99.90;;;;;;5068262;28;20040;-75
2023/02/15 03:03:23;;;;;;;27.25;12.38;;;-0.20;99.90;;;;;;5068228;28;20054;-75
2023/02/15 03:05:53;;;;;;;31.15;16.10;;;-0.20;99.90;;;;;;5039139;28;20116;-76
2023/02/15 03:08:22;;;;;;;30.45;15.20;;;-0.20;99.90;;;;;;5049490;28;20539;-76
2023/02/15 03:10:51;;;;;;;36.05;17.00;;;-0.20;99.90;;;;;;5068037;28;20427;-75
2023/02/15 03:13:17;;;;;;;23.17;12.55;;;-0.30;99.90;;;;;;5049689;28;20067;-74
2023/02/15 03:18:38;;;;;;;28.50;12.32;;;-0.20;99.90;;;;;;5071734;28;20036;-75
2023/02/15 03:21:07;;;;;;;19.42;10.38;;;-0.10;99.90;;;;;;5071631;28;20100;-76
2023/02/15 03:23:34;;;;;;;25.17;10.85;;;0.10;99.90;;;;;;5071450;28;20028;-75
2023/02/15 03:26:02;;;;;;;30.33;13.15;;;0.10;99.90;;;;;;5071676;28;20021;-75
2023/02/15 03:28:50;;;;;;;29.55;13.52;;;0.10;99.90;;;;;;5071429;28;20035;-75
2023/02/15 03:31:18;;;;;;;25.88;12.45;;;0.00;99.90;;;;;;5053517;28;20139;-76
2023/02/15 03:33:58;;;;;;;31.40;13.32;;;0.00;99.90;;;;;;5071177;28;20047;-75
2023/02/15 03:36:26;;;;;;;45.55;19.50;;;-0.10;99.90;;;;;;5071332;28;20142;-75
2023/02/15 03:39:06;;;;;;;59.58;23.00;;;-0.10;99.90;;;;;;5053404;28;20127;-75
2023/02/15 03:41:42;;;;;;;56.97;25.45;;;-0.10;99.90;;;;;;5071226;28;20365;-75
2023/02/15 03:44:22;;;;;;;72.55;30.25;;;-0.20;99.90;;;;;;5071330;28;20112;-76
2023/02/15 03:47:01;;;;;;;59.78;26.63;;;-0.30;99.90;;;;;;5071240;28;20021;-75
2023/02/15 03:49:36;;;;;;;65.63;27.63;;;-0.30;99.90;;;;;;5071331;28;20048;-76
2023/02/15 03:52:03;;;;;;;49.65;23.08;;;-0.40;99.90;;;;;;5053260;28;20123;-76
2023/02/15 03:54:48;;;;;;;48.30;22.25;;;-0.40;99.90;;;;;;5052931;28;20413;-75
2023/02/15 04:03:13;;;;;;;47.97;22.33;;;-0.40;99.90;;;;;;5071117;28;20039;-75
2023/02/15 04:05:39;;;;;;;47.38;21.88;;;-0.40;99.90;;;;;;5070885;28;20054;-75
2023/02/15 04:08:05;;;;;;;41.70;21.52;;;-0.50;99.90;;;;;;5052882;28;20028;-75
2023/02/15 04:13:15;;;;;;;47.78;23.02;;;-0.50;99.90;;;;;;5070567;28;20521;-75
2023/02/15 04:26:42;;;;;;;100.75;44.30;;;-0.70;99.90;;;;;;5070138;28;20409;-75
2023/02/15 04:29:08;;;;;;;;;;;-0.70;99.90;;;;;;5070953;28;20025;-74
2023/02/15 04:31:33;;;;;;;50.40;19.17;;;-0.70;99.90;;;;;;5052292;28;19983;-76
2023/02/15 04:33:59;;;;;;;;;;;-0.70;99.90;;;;;;5070242;28;20053;-74
2023/02/15 04:36:25;;;;;;;47.08;20.08;;;-0.60;99.90;;;;;;5052200;28;19915;-77
2023/02/15 04:38:51;;;;;;;;;;;-0.60;99.90;;;;;;5052867;28;20127;-74
2023/02/15 04:41:16;;;;;;;54.42;25.25;;;-0.70;99.90;;;;;;5052400;28;20447;-75
2023/02/15 04:43:42;;;;;;;;;;;-0.70;99.90;;;;;;5052961;28;20554;-75
2023/02/15 04:46:07;;;;;;;51.13;26.30;;;-0.70;99.90;;;;;;5070256;28;19955;-77
2023/02/15 04:48:33;;;;;;;;;;;-0.70;99.90;;;;;;5070664;28;20025;-77
2023/02/15 04:50:58;;;;;;;49.72;22.38;;;-0.70;99.90;;;;;;5070072;28;19944;-76
2023/02/15 04:53:24;;;;;;;;;;;-0.70;99.90;;;;;;5052247;28;20413;-76
2023/02/15 04:55:50;;;;;;;53.58;24.35;;;-0.80;99.90;;;;;;5051892;28;20513;-76
2023/02/15 04:58:15;;;;;;;;;;;-0.80;99.90;;;;;;5070246;28;20020;-76
2023/02/15 05:00:41;;;;;;;54.38;25.63;;;-0.80;99.90;;;;;;5051853;28;20018;-76
2023/02/15 05:03:06;;;;;;;;;;;-0.80;99.90;;;;;;5051973;28;20900;-76
2023/02/15 05:05:32;;;;;;;51.58;23.55;;;-0.90;99.90;;;;;;5069424;28;20660;-75
2023/02/15 05:07:57;;;;;;;;;;;-0.90;99.90;;;;;;5069791;28;20086;-75
2023/02/15 05:10:23;;;;;;;43.75;20.77;;;-0.90;99.90;;;;;;5051702;28;20523;-75
2023/02/15 05:12:49;;;;;;;;;;;-0.90;99.90;;;;;;5069641;28;20071;-76
2023/02/15 05:15:14;;;;;;;48.83;22.83;;;-0.90;99.90;;;;;;5051148;28;19908;-76
2023/02/15 05:17:40;;;;;;;;;;;-0.90;99.90;;;;;;5051768;28;20086;-76
2023/02/15 05:20:06;;;;;;;42.65;21.75;;;-0.90;99.90;;;;;;5069445;28;19958;-76
2023/02/15 05:22:32;;;;;;;49.25;24.02;;;-1.00;99.90;;;;;;5051057;28;20675;-76
2023/02/15 05:30:26;;;;;;;45.65;22.75;;;-1.10;99.90;;;;;;5069118;28;20047;-75
2023/02/15 05:32:51;;;;;;;;;;;-1.20;99.90;;;;;;5069317;28;20513;-74
2023/02/15 05:35:17;;;;;;;51.65;24.17;;;-1.20;99.90;;;;;;5050449;28;20372;-75
2023/02/15 05:37:43;;;;;;;;;;;-1.30;99.90;;;;;;5050952;28;20029;-75
2023/02/15 05:40:09;;;;;;;53.28;22.92;;;-1.30;99.90;;;;;;5068837;28;19908;-74
2023/02/15 05:42:35;;;;;;;;;;;-1.20;99.90;;;;;;5050915;28;20024;-74
2023/02/15 05:45:00;;;;;;;52.40;25.70;;;-1.20;99.90;;;;;;5050811;28;20304;-74
2023/02/15 05:47:26;;;;;;;;;;;-1.10;99.90;;;;;;5069351;28;20511;-75
2023/02/15 05:49:52;;;;;;;48.70;22.25;;;-1.10;99.90;;;;;;5050582;28;19905;-75
2023/02/15 05:52:17;;;;;;;;;;;-1.00;99.90;;;;;;5068981;28;20032;-74
2023/02/15 05:54:43;;;;;;;44.10;21.40;;;-0.90;99.90;;;;;;5050664;28;20355;-74
2023/02/15 05:57:08;;;;;;;;;;;-0.80;99.90;;;;;;5068882;28;20472;-74
2023/02/15 05:59:34;;;;;;;39.30;18.42;;;-0.70;99.90;;;;;;5068439;28;19904;-76
2023/02/15 06:02:00;;;;;;;;;;;-0.60;99.90;;;;;;5068663;28;20405;-74
2023/02/15 06:04:26;;;;;;;48.88;21.77;;;-0.60;99.90;;;;;;5068070;28;19922;-76
2023/02/15 06:06:51;;;;;;;;;;;-0.50;99.90;;;;;;5051087;28;20493;-74
2023/02/15 06:09:18;;;;;;;55.17;24.27;;;-0.50;99.90;;;;;;5068487;28;19999;-75
2023/02/15 06:11:45;;;;;;;48.30;18.85;;;-0.50;99.90;;;;;;5068591;28;20028;-75
2023/02/15 06:14:10;;;;;;;46.35;19.02;;;-0.40;99.90;;;;;;5068534;28;20040;-72
2023/02/15 06:16:36;;;;;;;;;;;-0.30;99.90;;;;;;5050973;28;20055;-76
2023/02/15 06:19:02;;;;;;;39.60;17.85;;;-0.30;99.90;;;;;;5050122;28;19935;-74
2023/02/15 06:21:29;;;;;;;46.25;19.40;;;-0.30;99.90;;;;;;5068519;28;20028;-76
2023/02/15 06:23:55;;;;;;;36.38;18.17;;;-0.20;99.90;;;;;;5050078;28;20017;-76
2023/02/15 06:26:21;;;;;;;;;;;-0.10;99.90;;;;;;5050619;28;20062;-76
2023/02/15 06:28:46;;;;;;;39.22;17.67;;;0.00;99.90;;;;;;5068010;28;19908;-74
2023/02/15 06:31:12;;;;;;;;;;;0.10;99.90;;;;;;5068721;28;20039;-75
2023/02/15 06:33:38;;;;;;;49.13;23.95;;;0.20;99.90;;;;;;5067719;28;19916;-75
2023/02/15 06:36:04;;;;;;;;;;;0.30;99.90;;;;;;5068817;28;20035;-74
2023/02/15 06:38:30;;;;;;;42.42;20.73;;;0.40;99.90;;;;;;5049506;28;19905;-73
2023/02/15 06:40:56;;;;;;;44.85;23.52;;;0.50;99.90;;;;;;5068295;28;20033;-75
2023/02/15 06:43:22;;;;;;;;;;;0.60;99.90;;;;;;5068562;28;20032;-74
2023/02/15 06:45:47;;;;;;;50.25;23.30;;;0.70;99.90;;;;;;5068030;28;19904;-75
2023/02/15 06:48:13;;;;;;;;;;;0.80;99.90;;;;;;5050648;28;20123;-75
2023/02/15 06:50:39;;;;;;;48.05;23.67;;;1.30;99.90;;;;;;5053993;28;19943;-75
2023/02/15 06:53:05;;;;;;;52.75;25.83;;;2.00;99.90;;;;;;5071753;28;20050;-74
2023/02/15 06:55:30;;;;;;;;;;;2.80;99.90;;;;;;5072786;28;20447;-72
2023/02/15 06:57:56;;;;;;;67.38;31.42;;;3.60;99.90;;;;;;5054244;28;19908;-75
2023/02/15 07:00:23;;;;;;;;;;;4.40;99.90;;;;;;5071922;28;20039;-74
2023/02/15 07:02:57;;;;;;;55.45;25.58;;;5.10;99.90;;;;;;5071907;28;20010;-75
2023/02/15 07:05:24;;;;;;;44.92;25.52;;;5.80;99.90;;;;;;5054068;28;20032;-74
2023/02/15 07:07:50;;;;;;;66.07;31.73;;;6.40;99.90;;;;;;5071481;28;20550;-75
2023/02/15 07:10:15;;;;;;;;;;;7.00;99.90;;;;;;5054046;28;20385;-74
2023/02/15 07:12:41;;;;;;;75.28;38.80;;;7.50;99.90;;;;;;5053752;28;20430;-75
2023/02/15 07:15:12;;;;;;;69.57;35.72;;;7.70;99.90;;;;;;5053415;28;20081;-74
2023/02/15 07:17:38;;;;;;;71.50;35.88;;;7.90;99.90;;;;;;5053800;28;20064;-75
2023/02/15 07:20:05;;;;;;;;;;;7.90;99.90;;;;;;5072739;28;20055;-75
2023/02/15 07:22:31;;;;;;;75.10;40.95;;;8.20;99.90;;;;;;5071437;28;19999;-74
2023/02/15 07:24:56;;;;;;;;;;;8.30;99.10;;;;;;5054017;28;20123;-75
2023/02/15 07:27:22;;;;;;;101.25;51.40;;;8.40;97.60;;;;;;5053560;28;19952;-73
2023/02/15 07:29:48;;;;;;;;;;;8.50;97.50;;;;;;5072052;28;20031;-75
2023/02/15 07:32:13;;;;;;;119.07;59.40;;;8.70;94.20;;;;;;5052870;28;19908;-74
2023/02/15 07:34:40;;;;;;;;;;;8.80;94.30;;;;;;5071674;28;20583;-74
2023/02/15 07:37:06;;;;;;;69.07;38.83;;;9.00;95.00;;;;;;5053416;28;19908;-75
2023/02/15 07:39:32;;;;;;;76.93;41.20;;;9.40;93.20;;;;;;5052840;28;20039;-76
2023/02/15 07:41:59;;;;;;;;;;;9.70;91.80;;;;;;5071591;28;20095;-76
2023/02/15 07:44:25;;;;;;;35.08;21.88;;;10.00;90.40;;;;;;5071133;28;19998;-76
2023/02/15 07:46:50;;;;;;;;;;;10.40;87.10;;;;;;5071776;28;20143;-76
2023/02/15 07:49:16;;;;;;;29.45;16.88;;;10.50;86.20;;;;;;5071190;28;19909;-76
2023/02/15 07:51:41;;;;;;;;;;;10.80;83.50;;;;;;5071370;28;20055;-75
2023/02/15 07:54:07;;;;;;;18.60;10.95;;;10.80;81.90;;;;;;5071085;28;20338;-76
2023/02/15 07:56:33;;;;;;;;;;;11.00;80.70;;;;;;5071283;28;20508;-76
2023/02/15 07:59:02;;;;;;;18.08;11.00;;;10.90;79.20;;;;;;5053121;28;19904;-76
2023/02/15 08:01:32;;;;;;;18.50;10.50;;;10.80;80.80;;;;;;5069889;28;20870;-75
2023/02/15 08:03:58;;;;;;;18.10;11.45;;;10.70;80.40;;;;;;5052402;28;20033;-76
2023/02/15 08:06:26;;;;;;;16.88;10.70;;;10.60;83.20;;;;;;5070592;28;20162;-76
2023/02/15 08:08:53;;;;;;;15.40;9.48;;;10.60;84.10;;;;;;5052519;28;20577;-76
2023/02/15 08:11:54;;;;;;;14.65;10.02;;;10.60;83.10;;;;;;5070829;28;20125;-76
2023/02/15 08:14:21;;;;;;;16.83;10.10;;;10.50;81.40;;;;;;5066950;28;20044;-77
2023/02/15 08:16:53;;;;;;;17.52;9.73;;;10.70;81.50;;;;;;5070298;28;20032;-77
2023/02/15 08:19:21;;;;;;;21.13;10.95;;;10.70;82.80;;;;;;5052263;28;20460;-75
2023/02/15 08:21:53;;;;;;;22.42;12.20;;;10.90;81.40;;;;;;5052589;28;20055;-75
2023/02/15 08:24:21;;;;;;;19.90;12.00;;;11.10;80.00;;;;;;5052496;28;20115;-76
2023/02/15 08:26:47;;;;;;;20.60;12.15;;;11.40;78.50;;;;;;5070131;28;20060;-75
2023/02/15 08:29:17;;;;;;;19.13;12.60;;;11.60;77.20;;;;;;5070593;28;20032;-76
2023/02/15 08:31:44;;;;;;;24.60;14.93;;;11.70;76.10;;;;;;5046682;28;20485;-76
2023/02/15 08:34:11;;;;;;;24.67;16.27;;;12.00;75.00;;;;;;5052184;28;20060;-76
2023/02/15 08:36:37;;;;;;;26.77;17.52;;;12.20;74.10;;;;;;5052445;28;20036;-76
2023/02/15 08:39:04;;;;;;;;;;;12.50;72.10;;;;;;5070475;28;20028;-76
2023/02/15 08:41:32;;;;;;;31.42;20.02;;;12.80;69.80;;;;;;5069862;28;19953;-77
2023/02/15 08:44:00;;;;;;;32.42;21.42;;;13.00;69.10;;;;;;5052271;28;20032;-76
2023/02/15 08:46:31;;;;;;;33.60;20.77;;;13.20;68.20;;;;;;5069863;28;20036;-76
2023/02/15 08:48:57;;;;;;;33.22;20.92;;;13.60;67.50;;;;;;5069702;28;20024;-75
2023/02/15 08:51:25;;;;;;;33.40;19.70;;;13.90;65.70;;;;;;5051581;28;20036;-76
2023/02/15 08:53:53;;;;;;;32.03;19.70;;;14.00;63.90;;;;;;5069601;28;20041;-77
2023/02/15 08:56:22;;;;;;;32.25;18.77;;;14.30;64.10;;;;;;5069699;28;20048;-76
2023/02/15 08:58:48;;;;;;;28.75;20.67;;;14.50;62.80;;;;;;5069791;28;20033;-76
2023/02/15 09:01:20;;;;;;;29.98;19.63;;;14.70;62.00;;;;;;5069711;28;20446;-76
2023/02/15 09:03:49;;;;;;;31.90;21.13;;;14.80;62.20;;;;;;5051805;28;20032;-78
2023/02/15 09:06:16;;;;;;;30.58;18.52;;;15.00;60.50;;;;;;5051583;28;20036;-76
2023/02/15 09:08:42;;;;;;;26.58;18.55;;;15.20;61.00;;;;;;5069705;28;20021;-76
2023/02/15 09:11:21;;;;;;;28.88;19.77;;;15.30;60.30;;;;;;5051681;28;20028;-77
2023/02/15 09:13:48;;;;;;;29.13;17.95;;;15.60;59.10;;;;;;5050625;28;20036;-77
2023/02/15 09:16:16;;;;;;;24.52;15.80;;;15.50;59.10;;;;;;5069140;28;20451;-77
2023/02/15 09:18:42;;;;;;;25.60;16.05;;;15.50;59.60;;;;;;5069374;28;20024;-77
2023/02/15 09:21:13;;;;;;;24.58;16.77;;;15.80;59.10;;;;;;5069296;28;20027;-76
2023/02/15 09:23:39;;;;;;;27.75;17.30;;;16.00;58.50;;;;;;5069351;28;20389;-76
2023/02/15 09:26:12;;;;;;;35.20;17.55;;;15.90;57.90;;;;;;5069491;28;20446;-77
2023/02/15 09:28:38;;;;;;;25.70;15.13;;;15.90;57.40;;;;;;5069372;28;20051;-77
2023/02/15 09:31:20;;;;;;;25.17;16.60;;;16.10;57.60;;;;;;5069344;28;20028;-77
2023/02/15 09:33:47;;;;;;;24.65;14.88;;;16.20;56.40;;;;;;5068702;28;20071;-77
2023/02/15 09:36:18;;;;;;;26.42;14.85;;;16.30;56.70;;;;;;5068839;28;20098;-77
2023/02/15 09:38:45;;;;;;;35.25;29.55;;;16.10;56.30;;;;;;5069086;28;20097;-77
2023/02/15 09:41:22;;;;;;;22.55;13.93;;;15.90;57.00;;;;;;5050409;28;20039;-76
2023/02/15 09:44:04;;;;;;;26.20;18.90;;;16.10;56.70;;;;;;5068793;28;20036;-75
2023/02/15 09:46:54;;;;;;;26.77;14.05;;;16.10;56.20;;;;;;5050733;28;20082;-76
2023/02/15 09:49:45;;;;;;;19.27;13.35;;;16.20;55.90;;;;;;5050993;28;20024;-76
2023/02/15 09:52:48;;;;;;;21.77;12.85;;;16.30;55.60;;;;;;5068579;28;20032;-76
2023/02/15 09:55:39;;;;;;;18.23;13.13;;;16.30;55.40;;;;;;5068783;28;20036;-76
2023/02/15 09:58:13;;;;;;;15.23;10.80;;;16.40;54.90;;;;;;5068835;28;20036;-77
2023/02/15 10:00:51;;;;;;;15.43;10.02;;;16.50;54.30;;;;;;5050932;28;20031;-76
2023/02/15 10:03:40;;;;;;;17.27;10.68;;;16.40;53.80;;;;;;5050706;28;20075;-76
2023/02/15 10:06:23;;;;;;;21.25;10.48;;;15.40;55.00;;;;;;5068107;28;20035;-76
2023/02/15 10:09:08;;;;;;;15.48;10.38;;;14.80;56.60;;;;;;5050227;28;20029;-76
2023/02/15 10:11:39;;;;;;;20.77;11.98;;;14.00;58.00;;;;;;5068556;28;20439;-76
2023/02/15 10:14:27;;;;;;;21.52;12.88;;;13.20;60.40;;;;;;5068578;28;20043;-76
2023/02/15 10:17:18;;;;;;;19.73;12.80;;;12.50;62.90;;;;;;5050465;28;20078;-76
2023/02/15 10:20:14;;;;;;;20.17;13.25;;;11.90;65.40;;;;;;5050314;28;20086;-76
2023/02/15 10:23:02;;;;;;;21.08;13.43;;;11.50;67.70;;;;;;5050361;28;20409;-76
2023/02/15 10:25:48;;;;;;;21.63;14.02;;;11.20;70.00;;;;;;5068340;28;20040;-75
2023/02/15 10:29:00;;;;;;;20.17;12.30;;;10.80;72.70;;;;;;5068215;28;20024;-75
2023/02/15 10:31:40;;;;;;;29.75;14.13;;;10.60;74.60;;;;;;5005287;28;20079;-75
2023/02/15 10:34:24;;;;;;;25.50;15.07;;;10.40;76.70;;;;;;5049802;28;20061;-76
2023/02/15 10:37:19;;;;;;;30.10;14.93;;;10.30;80.30;;;;;;5049695;28;20037;-76
2023/02/15 10:40:19;;;;;;;20.58;12.80;;;10.00;82.60;;;;;;5068086;28;20035;-76
2023/02/15 10:42:54;;;;;;;24.25;14.52;;;9.80;84.50;;;;;;5068449;28;20028;-76
2023/02/15 10:45:39;;;;;;;21.98;14.10;;;9.70;88.00;;;;;;5050333;28;20068;-76
2023/02/15 10:48:35;;;;;;;30.35;14.93;;;9.60;90.30;;;;;;5067483;28;20017;-75
2023/02/15 10:51:03;;;;;;;24.35;15.05;;;9.50;91.50;;;;;;5049792;28;20033;-76
2023/02/15 10:53:32;;;;;;;27.25;15.82;;;9.40;91.90;;;;;;5068024;28;20036;-76
2023/02/15 10:56:19;;;;;;;27.75;15.68;;;9.30;93.20;;;;;;5067795;28;20028;-76
2023/02/15 10:59:00;;;;;;;27.15;17.05;;;9.20;95.40;;;;;;5049887;28;20033;-76
2023/02/15 11:01:54;;;;;;;36.20;18.15;;;9.20;95.00;;;;;;5050030;28;20032;-76
2023/02/15 11:04:49;;;;;;;29.10;16.77;;;9.10;96.80;;;;;;5049429;28;20496;-76
2023/02/15 11:07:27;;;;;;;36.40;16.40;;;9.10;97.60;;;;;;5050121;28;20028;-76
2023/02/15 11:10:02;;;;;;;33.40;17.52;;;9.10;97.90;;;;;;5067827;28;20032;-75
2023/02/15 11:12:30;;;;;;;30.40;18.20;;;9.10;96.40;;;;;;5067660;28;20028;-76
2023/02/15 11:15:12;;;;;;;32.95;19.58;;;9.10;98.30;;;;;;5067482;28;20405;-76
2023/02/15 11:17:43;;;;;;;30.33;18.48;;;9.10;97.20;;;;;;5067985;28;20020;-76
2023/02/15 11:20:21;;;;;;;34.08;17.70;;;9.10;97.80;;;;;;5067983;28;20027;-76
2023/02/15 11:22:49;;;;;;;35.97;19.20;;;9.20;97.70;;;;;;5067835;28;20126;-76
2023/02/15 11:25:20;;;;;;;28.88;18.60;;;9.00;98.00;;;;;;5067779;28;20485;-77
2023/02/15 11:27:49;;;;;;;31.60;19.00;;;9.00;97.80;;;;;;5067914;28;20036;-76
2023/02/15 11:30:20;;;;;;;33.08;19.58;;;8.90;99.10;;;;;;5067412;28;20407;-77
2023/02/15 11:32:49;;;;;;;32.08;19.40;;;8.90;99.90;;;;;;5049628;28;20054;-76
2023/02/15 11:35:26;;;;;;;31.85;19.17;;;8.90;99.90;;;;;;5049872;28;20063;-76
2023/02/15 11:38:06;;;;;;;31.58;19.13;;;8.90;99.90;;;;;;5071483;28;20040;-76
2023/02/15 11:40:47;;;;;;;40.13;21.40;;;8.90;99.90;;;;;;5071519;28;20143;-76
2023/02/15 11:43:29;;;;;;;35.85;21.02;;;8.90;99.90;;;;;;5053448;28;20229;-76
2023/02/15 11:45:54;;;;;;;31.05;20.40;;;8.90;99.40;;;;;;5071304;28;20024;-76
2023/02/15 11:48:20;;;;;;;;;;;8.80;99.20;;;;;;5053825;28;20089;-76
2023/02/15 11:50:46;;;;;;;29.25;18.88;;;8.80;99.90;;;;;;5071384;28;20535;-76
2023/02/15 11:53:13;;;;;;;;;;;8.90;99.90;;;;;;5071545;28;20040;-76
2023/02/15 11:55:41;;;;;;;41.13;22.15;;;8.90;99.90;;;;;;5052892;28;19955;-76
2023/02/15 11:58:22;;;;;;;32.85;21.48;;;8.90;99.90;;;;;;5053098;28;20032;-75
2023/02/15 12:00:52;;;;;;;35.78;21.73;;;8.90;99.90;;;;;;5052887;28;20035;-76
2023/02/15 12:03:39;;;;;;;36.08;22.23;;;8.90;99.70;;;;;;5053151;28;20510;-76
2023/02/15 12:06:06;;;;;;;35.13;21.40;;;8.90;99.90;;;;;;5052898;28;20132;-76
2023/02/15 12:08:39;;;;;;;38.35;20.77;;;8.90;99.90;;;;;;5070802;28;20027;-77
2023/02/15 12:11:08;;;;;;;35.42;22.65;;;8.90;99.90;;;;;;5071240;28;20460;-76
2023/02/15 12:13:33;;;;;;;36.53;22.50;;;8.90;99.90;;;;;;5053908;28;20033;-76
2023/02/15 12:16:04;;;;;;;;;;;8.90;99.70;;;;;;5052704;28;20033;-76
2023/02/15 12:18:41;;;;;;;38.90;25.20;;;8.90;99.90;;;;;;5070408;28;19950;-76
2023/02/15 12:21:16;;;;;;;36.20;22.88;;;8.90;99.90;;;;;;5070737;28;20056;-76
2023/02/15 12:23:52;;;;;;;36.72;22.58;;;8.90;99.90;;;;;;5053233;28;20033;-76
2023/02/15 12:26:29;;;;;;;;;;;8.90;99.90;;;;;;5071882;28;20033;-75
2023/02/15 12:29:20;;;;;;;35.08;22.05;;;9.00;99.90;;;;;;5065781;28;19952;-75
2023/02/15 12:31:50;;;;;;;38.35;26.08;;;8.90;99.90;;;;;;5041909;28;20041;-76
2023/02/15 12:34:25;;;;;;;35.13;20.75;;;9.00;99.00;;;;;;5051694;28;20040;-76
2023/02/15 12:37:00;;;;;;;32.08;20.00;;;9.00;97.80;;;;;;5070240;28;20024;-76
2023/02/15 12:39:27;;;;;;;33.05;19.25;;;9.00;98.60;;;;;;5052349;28;20048;-76
2023/02/15 12:42:01;;;;;;;36.38;22.13;;;9.00;99.50;;;;;;5052205;28;20059;-76
2023/02/15 12:44:35;;;;;;;35.97;23.95;;;9.10;99.10;;;;;;5070002;28;20086;-77
2023/02/15 12:47:16;;;;;;;31.40;19.83;;;9.20;99.10;;;;;;5051925;28;20060;-77
2023/02/15 12:49:43;;;;;;;38.42;21.95;;;9.20;98.00;;;;;;5069981;28;20052;-77
2023/02/15 12:52:18;;;;;;;32.58;20.60;;;9.20;98.30;;;;;;5052058;28;20024;-76
2023/02/15 12:54:44;;;;;;;32.72;20.48;;;9.30;99.00;;;;;;5051676;28;20051;-76
2023/02/15 12:57:26;;;;;;;;;;;9.30;99.50;;;;;;5052038;28;20407;-77
2023/02/15 13:00:05;;;;;;;33.90;20.30;;;9.30;97.40;;;;;;5051712;28;19913;-76
2023/02/15 13:02:49;;;;;;;34.47;21.25;;;9.40;96.20;;;;;;5051646;28;20032;-76
2023/02/15 13:05:37;;;;;;;29.45;19.25;;;9.50;95.20;;;;;;5069739;28;20038;-76
2023/02/15 13:08:16;;;;;;;34.30;20.10;;;9.50;96.00;;;;;;5069420;28;20020;-77
2023/02/15 13:10:58;;;;;;;29.73;19.55;;;9.60;95.20;;;;;;5051578;28;20028;-78
2023/02/15 13:13:30;;;;;;;31.88;19.40;;;9.60;94.70;;;;;;5051217;28;20032;-76
2023/02/15 13:16:03;;;;;;;34.38;19.88;;;9.70;94.50;;;;;;5051605;28;20059;-76
2023/02/15 13:18:33;;;;;;;32.08;19.35;;;9.70;94.00;;;;;;5051313;28;20054;-76
2023/02/15 13:21:18;;;;;;;30.80;19.08;;;9.70;93.30;;;;;;5051454;28;20027;-75
2023/02/15 13:23:56;;;;;;;27.92;18.38;;;9.80;92.00;;;;;;5069134;28;20677;-76
2023/02/15 13:26:26;;;;;;;31.77;18.05;;;9.80;91.70;;;;;;5050892;28;20086;-76
2023/02/15 13:28:55;;;;;;;31.17;21.10;;;9.80;91.00;;;;;;5069156;28;20576;-77
2023/02/15 13:31:27;;;;;;;32.55;20.65;;;9.80;91.10;;;;;;5068852;28;20117;-75
2023/02/15 13:34:14;;;;;;;34.58;20.95;;;9.80;91.80;;;;;;5068796;28;20060;-77
2023/02/15 13:36:47;;;;;;;44.88;21.02;;;9.80;91.20;;;;;;5069001;28;20029;-75
2023/02/15 13:39:39;;;;;;;29.80;19.92;;;9.80;92.00;;;;;;5050922;28;20025;-76